mercredi 16 avril 2014

ALERTE SPOTTING 16/04/14

CNJ D-CAAA
  dpt DCS701 08h00

320 F-GHQE Air Corsica (blanc avec titre)
   XK4501XK4500   07h35/08h30
 XK4505/XK4504   20h15/21h20

142 D-AMGL WDL
  AF380V/AF7436  14h10/14h40
 arv  AF7437  17h30

332 F-GZCI Air France
   dpt AF373Y 21h00


Manque les prévisions/immats BE / certains AB / IB / AZ / TP / TU / BA / AH / KM
*** Heures en Local Time **
Prévisions matinales soumises à modifications de dernières minute. Voir le log du mois pour la version 'définitive' de la journée: http://www.airkalo.com/ORLYAVIATION/Logdumois.html

le TAF de la journée:

METAR: LFPO 160230Z 06007KT CAVOK 06/00 Q1027 NOSIG=
TAF LONG: LFPO 152300Z 1600/1706 06008KT CAVOK